sensor_id;sensor_type;location;lat;lon;timestamp;temperature;humidity
66088;DHT22;52872;52.994;6.940;2023-04-25T00:02:12;8.90;99.90
66088;DHT22;52872;52.994;6.940;2023-04-25T00:04:39;8.80;99.90
66088;DHT22;52872;52.994;6.940;2023-04-25T00:07:07;8.80;99.90
66088;DHT22;52872;52.994;6.940;2023-04-25T00:09:34;8.80;99.90
66088;DHT22;52872;52.994;6.940;2023-04-25T00:12:01;8.90;99.90
66088;DHT22;52872;52.994;6.940;2023-04-25T00:14:29;8.80;99.90
66088;DHT22;52872;52.994;6.940;2023-04-25T00:16:56;8.80;99.90
66088;DHT22;52872;52.994;6.940;2023-04-25T00:19:23;8.80;99.90
66088;DHT22;52872;52.994;6.940;2023-04-25T00:21:50;8.90;99.90
66088;DHT22;52872;52.994;6.940;2023-04-25T00:24:17;8.90;99.90
66088;DHT22;52872;52.994;6.940;2023-04-25T00:26:43;8.90;99.90
66088;DHT22;52872;52.994;6.940;2023-04-25T00:29:11;8.90;99.90
66088;DHT22;52872;52.994;6.940;2023-04-25T00:31:38;8.90;99.90
66088;DHT22;52872;52.994;6.940;2023-04-25T00:34:06;8.90;99.90
66088;DHT22;52872;52.994;6.940;2023-04-25T00:36:34;8.90;99.90
66088;DHT22;52872;52.994;6.940;2023-04-25T00:39:01;8.90;99.90
66088;DHT22;52872;52.994;6.940;2023-04-25T00:41:30;8.80;99.90
66088;DHT22;52872;52.994;6.940;2023-04-25T00:43:57;8.80;99.90
66088;DHT22;52872;52.994;6.940;2023-04-25T00:46:26;8.80;99.90
66088;DHT22;52872;52.994;6.940;2023-04-25T00:48:53;8.80;99.90
66088;DHT22;52872;52.994;6.940;2023-04-25T00:51:20;8.80;99.90
66088;DHT22;52872;52.994;6.940;2023-04-25T00:53:49;8.80;99.90
66088;DHT22;52872;52.994;6.940;2023-04-25T00:56:17;8.80;99.90
66088;DHT22;52872;52.994;6.940;2023-04-25T00:58:45;8.70;99.90
66088;DHT22;52872;52.994;6.940;2023-04-25T01:01:12;8.70;99.90
66088;DHT22;52872;52.994;6.940;2023-04-25T01:03:40;8.70;99.90
66088;DHT22;52872;52.994;6.940;2023-04-25T01:06:11;8.70;99.90
66088;DHT22;52872;52.994;6.940;2023-04-25T01:08:39;8.60;99.90
66088;DHT22;52872;52.994;6.940;2023-04-25T01:11:06;8.60;99.90
66088;DHT22;52872;52.994;6.940;2023-04-25T01:13:34;8.60;99.90
66088;DHT22;52872;52.994;6.940;2023-04-25T01:16:02;8.50;99.90
66088;DHT22;52872;52.994;6.940;2023-04-25T01:18:29;8.40;99.90
66088;DHT22;52872;52.994;6.940;2023-04-25T01:21:08;8.10;99.90
66088;DHT22;52872;52.994;6.940;2023-04-25T01:23:38;7.90;99.90
66088;DHT22;52872;52.994;6.940;2023-04-25T01:26:09;7.70;99.90
66088;DHT22;52872;52.994;6.940;2023-04-25T01:28:37;7.60;99.90
66088;DHT22;52872;52.994;6.940;2023-04-25T01:31:04;7.50;99.90
66088;DHT22;52872;52.994;6.940;2023-04-25T01:33:33;7.50;99.90
66088;DHT22;52872;52.994;6.940;2023-04-25T01:36:00;7.50;99.90
66088;DHT22;52872;52.994;6.940;2023-04-25T01:38:27;7.50;99.90
66088;DHT22;52872;52.994;6.940;2023-04-25T01:40:54;7.50;99.90
66088;DHT22;52872;52.994;6.940;2023-04-25T01:43:22;7.60;99.90
66088;DHT22;52872;52.994;6.940;2023-04-25T01:45:50;7.60;99.90
66088;DHT22;52872;52.994;6.940;2023-04-25T01:48:17;7.60;99.90
66088;DHT22;52872;52.994;6.940;2023-04-25T01:50:46;7.60;99.90
66088;DHT22;52872;52.994;6.940;2023-04-25T01:53:13;7.60;99.90
66088;DHT22;52872;52.994;6.940;2023-04-25T01:55:43;7.50;99.90
66088;DHT22;52872;52.994;6.940;2023-04-25T01:58:13;7.50;99.90
66088;DHT22;52872;52.994;6.940;2023-04-25T02:01:10;7.40;99.90
66088;DHT22;52872;52.994;6.940;2023-04-25T02:03:44;7.40;99.90
66088;DHT22;52872;52.994;6.940;2023-04-25T02:06:24;7.30;99.90
66088;DHT22;52872;52.994;6.940;2023-04-25T02:08:52;7.20;99.90
66088;DHT22;52872;52.994;6.940;2023-04-25T02:11:19;7.20;99.90
66088;DHT22;52872;52.994;6.940;2023-04-25T02:13:56;7.20;99.90
66088;DHT22;52872;52.994;6.940;2023-04-25T02:16:38;7.20;99.90
66088;DHT22;52872;52.994;6.940;2023-04-25T02:19:06;7.30;99.90
66088;DHT22;52872;52.994;6.940;2023-04-25T02:21:33;7.30;99.90
66088;DHT22;52872;52.994;6.940;2023-04-25T02:24:03;7.30;99.90
66088;DHT22;52872;52.994;6.940;2023-04-25T02:26:30;7.40;99.90
66088;DHT22;52872;52.994;6.940;2023-04-25T02:28:57;7.40;99.90
66088;DHT22;52872;52.994;6.940;2023-04-25T02:31:24;7.50;99.90
66088;DHT22;52872;52.994;6.940;2023-04-25T02:33:51;7.50;99.90
66088;DHT22;52872;52.994;6.940;2023-04-25T02:36:18;7.60;99.90
66088;DHT22;52872;52.994;6.940;2023-04-25T02:38:48;7.60;99.90
66088;DHT22;52872;52.994;6.940;2023-04-25T02:41:14;7.60;99.90
66088;DHT22;52872;52.994;6.940;2023-04-25T02:43:41;7.70;99.90
66088;DHT22;52872;52.994;6.940;2023-04-25T02:46:08;7.70;99.90
66088;DHT22;52872;52.994;6.940;2023-04-25T02:48:35;7.70;99.90
66088;DHT22;52872;52.994;6.940;2023-04-25T02:51:02;7.70;99.90
66088;DHT22;52872;52.994;6.940;2023-04-25T02:53:29;7.60;99.90
66088;DHT22;52872;52.994;6.940;2023-04-25T02:55:56;7.60;99.90
66088;DHT22;52872;52.994;6.940;2023-04-25T02:58:25;7.60;99.90
66088;DHT22;52872;52.994;6.940;2023-04-25T03:00:53;7.50;99.90
66088;DHT22;52872;52.994;6.940;2023-04-25T03:03:20;7.50;99.90
66088;DHT22;52872;52.994;6.940;2023-04-25T03:05:51;7.50;99.90
66088;DHT22;52872;52.994;6.940;2023-04-25T03:08:23;7.50;99.90
66088;DHT22;52872;52.994;6.940;2023-04-25T03:10:52;7.50;99.90
66088;DHT22;52872;52.994;6.940;2023-04-25T03:13:22;7.50;99.90
66088;DHT22;52872;52.994;6.940;2023-04-25T03:15:49;7.50;99.90
66088;DHT22;52872;52.994;6.940;2023-04-25T03:18:18;7.50;99.90
66088;DHT22;52872;52.994;6.940;2023-04-25T03:20:45;7.60;99.90
66088;DHT22;52872;52.994;6.940;2023-04-25T03:23:13;7.60;99.90
66088;DHT22;52872;52.994;6.940;2023-04-25T03:25:41;7.60;99.90
66088;DHT22;52872;52.994;6.940;2023-04-25T03:28:08;7.60;99.90
66088;DHT22;52872;52.994;6.940;2023-04-25T03:30:35;7.60;99.90
66088;DHT22;52872;52.994;6.940;2023-04-25T03:33:02;7.50;99.90
66088;DHT22;52872;52.994;6.940;2023-04-25T03:35:29;7.50;99.90
66088;DHT22;52872;52.994;6.940;2023-04-25T03:37:56;7.50;99.90
66088;DHT22;52872;52.994;6.940;2023-04-25T03:40:28;7.60;99.90
66088;DHT22;52872;52.994;6.940;2023-04-25T03:43:08;7.60;99.90
66088;DHT22;52872;52.994;6.940;2023-04-25T03:45:36;7.60;99.90
66088;DHT22;52872;52.994;6.940;2023-04-25T03:48:03;7.60;99.90
66088;DHT22;52872;52.994;6.940;2023-04-25T03:50:31;7.60;99.90
66088;DHT22;52872;52.994;6.940;2023-04-25T03:52:59;7.60;99.90
66088;DHT22;52872;52.994;6.940;2023-04-25T03:55:29;7.70;99.90
66088;DHT22;52872;52.994;6.940;2023-04-25T03:57:57;7.70;99.90
66088;DHT22;52872;52.994;6.940;2023-04-25T04:00:25;7.70;99.90
66088;DHT22;52872;52.994;6.940;2023-04-25T04:02:52;7.70;99.90
66088;DHT22;52872;52.994;6.940;2023-04-25T04:05:19;7.70;99.90
66088;DHT22;52872;52.994;6.940;2023-04-25T04:07:52;7.70;99.90
66088;DHT22;52872;52.994;6.940;2023-04-25T04:10:18;7.60;99.90
66088;DHT22;52872;52.994;6.940;2023-04-25T04:12:46;7.60;99.90
66088;DHT22;52872;52.994;6.940;2023-04-25T04:15:13;7.60;99.90
66088;DHT22;52872;52.994;6.940;2023-04-25T04:17:42;7.50;99.90
66088;DHT22;52872;52.994;6.940;2023-04-25T04:20:10;7.50;99.90
66088;DHT22;52872;52.994;6.940;2023-04-25T04:22:39;7.50;99.90
66088;DHT22;52872;52.994;6.940;2023-04-25T04:25:09;7.40;99.90
66088;DHT22;52872;52.994;6.940;2023-04-25T04:28:04;7.30;99.90
66088;DHT22;52872;52.994;6.940;2023-04-25T04:30:57;7.20;99.90
66088;DHT22;52872;52.994;6.940;2023-04-25T04:33:25;7.10;99.90
66088;DHT22;52872;52.994;6.940;2023-04-25T04:35:57;7.10;99.90
66088;DHT22;52872;52.994;6.940;2023-04-25T04:38:24;7.10;99.90
66088;DHT22;52872;52.994;6.940;2023-04-25T04:40:55;7.00;99.90
66088;DHT22;52872;52.994;6.940;2023-04-25T04:43:40;7.00;99.90
66088;DHT22;52872;52.994;6.940;2023-04-25T04:46:32;6.90;99.90
66088;DHT22;52872;52.994;6.940;2023-04-25T04:49:22;6.90;99.90
66088;DHT22;52872;52.994;6.940;2023-04-25T04:52:08;6.90;99.90
66088;DHT22;52872;52.994;6.940;2023-04-25T04:54:55;6.90;99.90
66088;DHT22;52872;52.994;6.940;2023-04-25T04:57:39;6.90;99.90
66088;DHT22;52872;52.994;6.940;2023-04-25T05:00:15;6.90;99.90
66088;DHT22;52872;52.994;6.940;2023-04-25T05:03:00;6.90;99.90
66088;DHT22;52872;52.994;6.940;2023-04-25T05:05:59;6.90;99.90
66088;DHT22;52872;52.994;6.940;2023-04-25T05:08:47;7.00;99.90
66088;DHT22;52872;52.994;6.940;2023-04-25T05:11:32;7.40;99.90
66088;DHT22;52872;52.994;6.940;2023-04-25T05:14:37;7.80;99.90
66088;DHT22;52872;52.994;6.940;2023-04-25T05:17:23;8.20;99.90
66088;DHT22;52872;52.994;6.940;2023-04-25T05:20:19;8.50;99.90
66088;DHT22;52872;52.994;6.940;2023-04-25T05:23:04;8.90;99.90
66088;DHT22;52872;52.994;6.940;2023-04-25T05:25:53;9.40;99.90
66088;DHT22;52872;52.994;6.940;2023-04-25T05:28:55;10.00;99.90
66088;DHT22;52872;52.994;6.940;2023-04-25T05:31:37;10.50;99.90
66088;DHT22;52872;52.994;6.940;2023-04-25T05:34:09;11.00;99.90
66088;DHT22;52872;52.994;6.940;2023-04-25T05:36:55;11.50;99.90
66088;DHT22;52872;52.994;6.940;2023-04-25T05:39:22;12.20;99.90
66088;DHT22;52872;52.994;6.940;2023-04-25T05:42:14;12.60;99.90
66088;DHT22;52872;52.994;6.940;2023-04-25T05:44:59;12.70;99.90
66088;DHT22;52872;52.994;6.940;2023-04-25T05:47:46;12.50;99.90
66088;DHT22;52872;52.994;6.940;2023-04-25T05:50:24;12.20;99.90
66088;DHT22;52872;52.994;6.940;2023-04-25T05:52:54;11.60;99.90
66088;DHT22;52872;52.994;6.940;2023-04-25T05:55:34;11.10;99.90
66088;DHT22;52872;52.994;6.940;2023-04-25T05:58:12;10.40;99.90
66088;DHT22;52872;52.994;6.940;2023-04-25T06:00:39;9.90;99.90
66088;DHT22;52872;52.994;6.940;2023-04-25T06:03:08;9.60;99.90
66088;DHT22;52872;52.994;6.940;2023-04-25T06:05:36;9.40;99.90
66088;DHT22;52872;52.994;6.940;2023-04-25T06:08:03;9.40;99.90
66088;DHT22;52872;52.994;6.940;2023-04-25T06:10:30;9.40;99.90
66088;DHT22;52872;52.994;6.940;2023-04-25T06:12:58;9.60;99.90
66088;DHT22;52872;52.994;6.940;2023-04-25T06:15:26;9.70;99.90
66088;DHT22;52872;52.994;6.940;2023-04-25T06:17:55;9.80;99.90
66088;DHT22;52872;52.994;6.940;2023-04-25T06:20:22;10.00;99.90
66088;DHT22;52872;52.994;6.940;2023-04-25T06:22:52;10.20;99.90
66088;DHT22;52872;52.994;6.940;2023-04-25T06:25:24;10.50;99.90
66088;DHT22;52872;52.994;6.940;2023-04-25T06:27:51;11.10;99.90
66088;DHT22;52872;52.994;6.940;2023-04-25T06:30:18;12.10;99.90
66088;DHT22;52872;52.994;6.940;2023-04-25T06:32:51;12.90;99.90
66088;DHT22;52872;52.994;6.940;2023-04-25T06:35:19;13.40;99.70
66088;DHT22;52872;52.994;6.940;2023-04-25T06:37:46;13.40;98.60
66088;DHT22;52872;52.994;6.940;2023-04-25T06:40:13;13.20;97.90
66088;DHT22;52872;52.994;6.940;2023-04-25T06:42:41;12.70;98.60
66088;DHT22;52872;52.994;6.940;2023-04-25T06:45:27;12.40;99.20
66088;DHT22;52872;52.994;6.940;2023-04-25T06:47:54;11.90;99.50
66088;DHT22;52872;52.994;6.940;2023-04-25T06:50:21;11.50;98.90
66088;DHT22;52872;52.994;6.940;2023-04-25T06:52:48;11.20;99.90
66088;DHT22;52872;52.994;6.940;2023-04-25T06:55:16;10.90;99.90
66088;DHT22;52872;52.994;6.940;2023-04-25T06:58:03;10.70;99.90
66088;DHT22;52872;52.994;6.940;2023-04-25T07:00:50;10.80;99.90
66088;DHT22;52872;52.994;6.940;2023-04-25T07:03:20;11.10;99.90
66088;DHT22;52872;52.994;6.940;2023-04-25T07:05:48;11.20;99.80
66088;DHT22;52872;52.994;6.940;2023-04-25T07:08:15;11.40;99.90
66088;DHT22;52872;52.994;6.940;2023-04-25T07:10:43;11.50;99.90
66088;DHT22;52872;52.994;6.940;2023-04-25T07:13:10;11.60;98.80
66088;DHT22;52872;52.994;6.940;2023-04-25T07:15:37;11.80;99.40
66088;DHT22;52872;52.994;6.940;2023-04-25T07:18:05;12.20;98.90
66088;DHT22;52872;52.994;6.940;2023-04-25T07:20:32;12.80;99.00
66088;DHT22;52872;52.994;6.940;2023-04-25T07:22:59;13.40;98.40
66088;DHT22;52872;52.994;6.940;2023-04-25T07:25:26;13.90;97.40
66088;DHT22;52872;52.994;6.940;2023-04-25T07:27:54;14.40;96.40
66088;DHT22;52872;52.994;6.940;2023-04-25T07:30:21;14.60;95.60
66088;DHT22;52872;52.994;6.940;2023-04-25T07:32:50;15.20;95.60
66088;DHT22;52872;52.994;6.940;2023-04-25T07:35:17;15.80;94.70
66088;DHT22;52872;52.994;6.940;2023-04-25T07:37:44;16.20;93.50
66088;DHT22;52872;52.994;6.940;2023-04-25T07:40:14;16.40;92.60
66088;DHT22;52872;52.994;6.940;2023-04-25T07:42:50;15.70;93.00
66088;DHT22;52872;52.994;6.940;2023-04-25T07:45:26;15.10;94.40
66088;DHT22;52872;52.994;6.940;2023-04-25T07:47:53;14.00;98.20
66088;DHT22;52872;52.994;6.940;2023-04-25T07:50:21;13.40;99.10
66088;DHT22;52872;52.994;6.940;2023-04-25T07:52:48;12.90;99.90
66088;DHT22;52872;52.994;6.940;2023-04-25T07:55:25;12.60;99.90
66088;DHT22;52872;52.994;6.940;2023-04-25T07:58:01;12.30;99.90
66088;DHT22;52872;52.994;6.940;2023-04-25T08:00:30;12.50;99.90
66088;DHT22;52872;52.994;6.940;2023-04-25T08:03:17;13.20;99.90
66088;DHT22;52872;52.994;6.940;2023-04-25T08:05:44;14.40;99.10
66088;DHT22;52872;52.994;6.940;2023-04-25T08:08:13;15.70;98.00
66088;DHT22;52872;52.994;6.940;2023-04-25T08:10:41;17.20;95.90
66088;DHT22;52872;52.994;6.940;2023-04-25T08:13:08;18.50;93.30
66088;DHT22;52872;52.994;6.940;2023-04-25T08:15:36;19.00;90.70
66088;DHT22;52872;52.994;6.940;2023-04-25T08:18:03;19.10;81.10
66088;DHT22;52872;52.994;6.940;2023-04-25T08:20:31;18.40;78.20
66088;DHT22;52872;52.994;6.940;2023-04-25T08:23:00;17.60;78.40
66088;DHT22;52872;52.994;6.940;2023-04-25T08:25:46;17.00;79.20
66088;DHT22;52872;52.994;6.940;2023-04-25T08:28:16;16.80;82.70
66088;DHT22;52872;52.994;6.940;2023-04-25T08:30:43;16.30;80.70
66088;DHT22;52872;52.994;6.940;2023-04-25T08:33:12;16.10;83.90
66088;DHT22;52872;52.994;6.940;2023-04-25T08:35:58;15.90;83.50
66088;DHT22;52872;52.994;6.940;2023-04-25T08:38:26;15.80;84.40
66088;DHT22;52872;52.994;6.940;2023-04-25T08:40:54;15.70;83.50
66088;DHT22;52872;52.994;6.940;2023-04-25T08:43:23;15.40;83.00
66088;DHT22;52872;52.994;6.940;2023-04-25T08:45:53;15.10;86.80
66088;DHT22;52872;52.994;6.940;2023-04-25T08:48:45;15.20;88.10
66088;DHT22;52872;52.994;6.940;2023-04-25T08:51:21;15.10;86.10
66088;DHT22;52872;52.994;6.940;2023-04-25T08:53:51;14.80;83.20
66088;DHT22;52872;52.994;6.940;2023-04-25T08:56:22;14.20;83.30
66088;DHT22;52872;52.994;6.940;2023-04-25T08:58:50;13.80;85.20
66088;DHT22;52872;52.994;6.940;2023-04-25T09:01:18;13.50;89.60
66088;DHT22;52872;52.994;6.940;2023-04-25T09:03:50;12.80;91.00
66088;DHT22;52872;52.994;6.940;2023-04-25T09:06:17;12.20;92.50
66088;DHT22;52872;52.994;6.940;2023-04-25T09:08:50;11.90;93.70
66088;DHT22;52872;52.994;6.940;2023-04-25T09:11:17;11.80;94.30
66088;DHT22;52872;52.994;6.940;2023-04-25T09:13:46;11.90;93.80
66088;DHT22;52872;52.994;6.940;2023-04-25T09:16:23;12.30;94.00
66088;DHT22;52872;52.994;6.940;2023-04-25T09:19:22;12.30;93.30
66088;DHT22;52872;52.994;6.940;2023-04-25T09:22:05;12.50;94.10
66088;DHT22;52872;52.994;6.940;2023-04-25T09:24:33;12.70;92.70
66088;DHT22;52872;52.994;6.940;2023-04-25T09:27:08;12.60;92.30
66088;DHT22;52872;52.994;6.940;2023-04-25T09:29:38;12.70;91.90
66088;DHT22;52872;52.994;6.940;2023-04-25T09:32:24;12.70;92.40
66088;DHT22;52872;52.994;6.940;2023-04-25T09:34:56;12.70;91.70
66088;DHT22;52872;52.994;6.940;2023-04-25T09:37:26;12.50;91.50
66088;DHT22;52872;52.994;6.940;2023-04-25T09:40:19;12.60;92.90
66088;DHT22;52872;52.994;6.940;2023-04-25T09:42:54;12.60;92.50
66088;DHT22;52872;52.994;6.940;2023-04-25T09:45:23;12.60;92.30
66088;DHT22;52872;52.994;6.940;2023-04-25T09:47:50;12.60;92.20
66088;DHT22;52872;52.994;6.940;2023-04-25T09:50:22;12.50;91.20
66088;DHT22;52872;52.994;6.940;2023-04-25T09:53:04;12.30;91.10
66088;DHT22;52872;52.994;6.940;2023-04-25T09:56:00;12.20;92.00
66088;DHT22;52872;52.994;6.940;2023-04-25T09:58:30;12.30;91.50
66088;DHT22;52872;52.994;6.940;2023-04-25T10:01:02;12.40;91.10
66088;DHT22;52872;52.994;6.940;2023-04-25T10:03:40;12.50;91.50
66088;DHT22;52872;52.994;6.940;2023-04-25T10:06:21;12.70;92.40
66088;DHT22;52872;52.994;6.940;2023-04-25T10:08:51;12.80;91.70
66088;DHT22;52872;52.994;6.940;2023-04-25T10:11:19;12.90;91.40
66088;DHT22;52872;52.994;6.940;2023-04-25T10:13:50;12.80;91.40
66088;DHT22;52872;52.994;6.940;2023-04-25T10:16:17;13.00;92.70
66088;DHT22;52872;52.994;6.940;2023-04-25T10:18:45;13.10;91.00
66088;DHT22;52872;52.994;6.940;2023-04-25T10:21:12;12.60;95.40
66088;DHT22;52872;52.994;6.940;2023-04-25T10:23:42;10.80;99.90
66088;DHT22;52872;52.994;6.940;2023-04-25T10:26:09;10.00;99.90
66088;DHT22;52872;52.994;6.940;2023-04-25T10:28:58;9.50;99.90
66088;DHT22;52872;52.994;6.940;2023-04-25T10:31:26;9.30;99.90
66088;DHT22;52872;52.994;6.940;2023-04-25T10:33:53;9.20;99.90
66088;DHT22;52872;52.994;6.940;2023-04-25T10:36:22;9.20;99.90
66088;DHT22;52872;52.994;6.940;2023-04-25T10:38:50;9.50;99.90
66088;DHT22;52872;52.994;6.940;2023-04-25T10:41:18;9.80;99.90
66088;DHT22;52872;52.994;6.940;2023-04-25T10:43:47;10.20;99.90
66088;DHT22;52872;52.994;6.940;2023-04-25T10:46:18;10.60;99.90
66088;DHT22;52872;52.994;6.940;2023-04-25T10:48:57;11.00;99.90
66088;DHT22;52872;52.994;6.940;2023-04-25T10:51:28;11.40;99.90
66088;DHT22;52872;52.994;6.940;2023-04-25T10:54:08;11.70;99.90
66088;DHT22;52872;52.994;6.940;2023-04-25T10:56:41;11.90;99.90
66088;DHT22;52872;52.994;6.940;2023-04-25T10:59:18;12.30;99.90
66088;DHT22;52872;52.994;6.940;2023-04-25T11:01:47;12.40;99.90
66088;DHT22;52872;52.994;6.940;2023-04-25T11:04:20;12.10;99.90
66088;DHT22;52872;52.994;6.940;2023-04-25T11:07:02;11.70;99.90
66088;DHT22;52872;52.994;6.940;2023-04-25T11:09:35;11.40;99.90
66088;DHT22;52872;52.994;6.940;2023-04-25T11:12:02;11.30;99.90
66088;DHT22;52872;52.994;6.940;2023-04-25T11:14:29;10.80;99.90
66088;DHT22;52872;52.994;6.940;2023-04-25T11:16:57;10.30;99.90
66088;DHT22;52872;52.994;6.940;2023-04-25T11:19:26;10.00;99.90
66088;DHT22;52872;52.994;6.940;2023-04-25T11:21:57;9.80;99.90
66088;DHT22;52872;52.994;6.940;2023-04-25T11:24:28;9.90;99.90
66088;DHT22;52872;52.994;6.940;2023-04-25T11:26:56;10.10;99.90
66088;DHT22;52872;52.994;6.940;2023-04-25T11:29:26;10.30;99.90
66088;DHT22;52872;52.994;6.940;2023-04-25T11:31:54;10.50;99.90
66088;DHT22;52872;52.994;6.940;2023-04-25T11:34:25;10.70;99.90
66088;DHT22;52872;52.994;6.940;2023-04-25T11:36:53;10.90;99.90
66088;DHT22;52872;52.994;6.940;2023-04-25T11:39:20;11.00;99.90
66088;DHT22;52872;52.994;6.940;2023-04-25T11:41:48;10.90;99.90
66088;DHT22;52872;52.994;6.940;2023-04-25T11:44:18;10.70;99.90
66088;DHT22;52872;52.994;6.940;2023-04-25T11:46:46;10.50;99.90
66088;DHT22;52872;52.994;6.940;2023-04-25T11:49:14;10.60;99.90
66088;DHT22;52872;52.994;6.940;2023-04-25T11:51:43;10.80;99.90
66088;DHT22;52872;52.994;6.940;2023-04-25T11:54:11;11.00;99.90
66088;DHT22;52872;52.994;6.940;2023-04-25T11:56:45;11.10;99.90
66088;DHT22;52872;52.994;6.940;2023-04-25T11:59:12;11.20;99.90
66088;DHT22;52872;52.994;6.940;2023-04-25T12:01:41;11.10;99.90
66088;DHT22;52872;52.994;6.940;2023-04-25T12:04:19;11.20;99.90
66088;DHT22;52872;52.994;6.940;2023-04-25T12:06:49;11.50;99.90
66088;DHT22;52872;52.994;6.940;2023-04-25T12:09:18;11.60;99.40
66088;DHT22;52872;52.994;6.940;2023-04-25T12:11:48;12.00;99.30
66088;DHT22;52872;52.994;6.940;2023-04-25T12:16:50;12.50;97.10
66088;DHT22;52872;52.994;6.940;2023-04-25T12:19:19;12.60;97.50
66088;DHT22;52872;52.994;6.940;2023-04-25T12:21:47;12.70;96.40
66088;DHT22;52872;52.994;6.940;2023-04-25T12:24:21;12.50;95.20
66088;DHT22;52872;52.994;6.940;2023-04-25T12:26:58;12.60;96.30
66088;DHT22;52872;52.994;6.940;2023-04-25T12:29:28;12.70;93.50
66088;DHT22;52872;52.994;6.940;2023-04-25T12:32:00;12.70;94.40
66088;DHT22;52872;52.994;6.940;2023-04-25T12:34:28;12.50;94.70
66088;DHT22;52872;52.994;6.940;2023-04-25T12:36:55;12.50;95.30
66088;DHT22;52872;52.994;6.940;2023-04-25T12:39:24;12.60;95.00
66088;DHT22;52872;52.994;6.940;2023-04-25T12:41:54;12.70;95.40
66088;DHT22;52872;52.994;6.940;2023-04-25T12:44:21;12.60;94.00
66088;DHT22;52872;52.994;6.940;2023-04-25T12:46:48;12.60;93.30
66088;DHT22;52872;52.994;6.940;2023-04-25T12:49:16;12.60;93.40
66088;DHT22;52872;52.994;6.940;2023-04-25T12:51:45;12.80;93.80
66088;DHT22;52872;52.994;6.940;2023-04-25T12:54:12;12.80;93.90
66088;DHT22;52872;52.994;6.940;2023-04-25T12:56:40;12.90;93.90
66088;DHT22;52872;52.994;6.940;2023-04-25T12:59:08;13.10;94.70
66088;DHT22;52872;52.994;6.940;2023-04-25T13:01:36;13.10;93.40
66088;DHT22;52872;52.994;6.940;2023-04-25T13:04:03;12.80;92.30
66088;DHT22;52872;52.994;6.940;2023-04-25T13:06:30;12.70;93.90
66088;DHT22;52872;52.994;6.940;2023-04-25T13:08:57;12.70;94.50
66088;DHT22;52872;52.994;6.940;2023-04-25T13:11:24;12.50;93.50
66088;DHT22;52872;52.994;6.940;2023-04-25T13:13:51;12.60;94.70
66088;DHT22;52872;52.994;6.940;2023-04-25T13:16:18;12.80;94.10
66088;DHT22;52872;52.994;6.940;2023-04-25T13:18:47;13.00;93.70
66088;DHT22;52872;52.994;6.940;2023-04-25T13:21:14;13.00;92.70
66088;DHT22;52872;52.994;6.940;2023-04-25T13:23:41;13.30;92.80
66088;DHT22;52872;52.994;6.940;2023-04-25T13:26:13;13.40;92.30
66088;DHT22;52872;52.994;6.940;2023-04-25T13:28:40;13.60;92.70
66088;DHT22;52872;52.994;6.940;2023-04-25T13:31:09;13.60;91.20
66088;DHT22;52872;52.994;6.940;2023-04-25T13:33:36;13.50;92.10
66088;DHT22;52872;52.994;6.940;2023-04-25T13:36:03;13.50;92.10
66088;DHT22;52872;52.994;6.940;2023-04-25T13:38:30;13.60;92.30
66088;DHT22;52872;52.994;6.940;2023-04-25T13:40:57;13.50;91.00
66088;DHT22;52872;52.994;6.940;2023-04-25T13:43:24;13.40;88.60
66088;DHT22;52872;52.994;6.940;2023-04-25T13:45:51;13.30;91.50
66088;DHT22;52872;52.994;6.940;2023-04-25T13:48:19;13.20;91.00
66088;DHT22;52872;52.994;6.940;2023-04-25T13:50:46;13.30;90.20
66088;DHT22;52872;52.994;6.940;2023-04-25T13:53:13;13.30;88.70
66088;DHT22;52872;52.994;6.940;2023-04-25T13:55:40;13.20;88.40
66088;DHT22;52872;52.994;6.940;2023-04-25T13:58:07;13.20;88.50
66088;DHT22;52872;52.994;6.940;2023-04-25T14:00:37;13.10;90.00
66088;DHT22;52872;52.994;6.940;2023-04-25T14:03:09;13.00;90.50
66088;DHT22;52872;52.994;6.940;2023-04-25T14:05:37;12.80;91.90
66088;DHT22;52872;52.994;6.940;2023-04-25T14:08:09;12.60;93.50
66088;DHT22;52872;52.994;6.940;2023-04-25T14:10:36;12.60;91.50
66088;DHT22;52872;52.994;6.940;2023-04-25T14:13:04;12.40;91.60
66088;DHT22;52872;52.994;6.940;2023-04-25T14:15:32;12.40;92.00
66088;DHT22;52872;52.994;6.940;2023-04-25T14:18:00;12.40;92.60
66088;DHT22;52872;52.994;6.940;2023-04-25T14:20:28;12.40;92.20
66088;DHT22;52872;52.994;6.940;2023-04-25T14:22:55;12.40;92.20
66088;DHT22;52872;52.994;6.940;2023-04-25T14:25:24;12.60;93.00
66088;DHT22;52872;52.994;6.940;2023-04-25T14:27:52;12.70;93.30
66088;DHT22;52872;52.994;6.940;2023-04-25T14:30:20;12.70;93.10
66088;DHT22;52872;52.994;6.940;2023-04-25T14:32:50;12.70;92.10
66088;DHT22;52872;52.994;6.940;2023-04-25T14:35:17;12.50;91.40
66088;DHT22;52872;52.994;6.940;2023-04-25T14:37:44;12.60;91.60
66088;DHT22;52872;52.994;6.940;2023-04-25T14:40:11;12.70;92.30
66088;DHT22;52872;52.994;6.940;2023-04-25T14:42:40;12.80;91.20
66088;DHT22;52872;52.994;6.940;2023-04-25T14:45:08;12.90;91.10
66088;DHT22;52872;52.994;6.940;2023-04-25T14:47:36;12.90;90.10
66088;DHT22;52872;52.994;6.940;2023-04-25T14:50:05;12.90;90.10
66088;DHT22;52872;52.994;6.940;2023-04-25T14:52:32;12.80;90.30
66088;DHT22;52872;52.994;6.940;2023-04-25T14:54:59;12.80;90.90
66088;DHT22;52872;52.994;6.940;2023-04-25T14:57:32;12.70;90.60
66088;DHT22;52872;52.994;6.940;2023-04-25T15:00:00;12.70;91.50
66088;DHT22;52872;52.994;6.940;2023-04-25T15:02:28;12.50;91.50
66088;DHT22;52872;52.994;6.940;2023-04-25T15:04:55;12.40;91.10
66088;DHT22;52872;52.994;6.940;2023-04-25T15:07:22;12.40;92.00
66088;DHT22;52872;52.994;6.940;2023-04-25T15:09:49;12.60;92.30
66088;DHT22;52872;52.994;6.940;2023-04-25T15:12:16;12.60;91.90
66088;DHT22;52872;52.994;6.940;2023-04-25T15:14:43;12.50;92.70
66088;DHT22;52872;52.994;6.940;2023-04-25T15:17:10;12.50;92.40
66088;DHT22;52872;52.994;6.940;2023-04-25T15:19:40;12.60;93.10
66088;DHT22;52872;52.994;6.940;2023-04-25T15:22:07;12.50;92.50
66088;DHT22;52872;52.994;6.940;2023-04-25T15:24:34;12.60;92.30
66088;DHT22;52872;52.994;6.940;2023-04-25T15:27:01;12.50;91.30
66088;DHT22;52872;52.994;6.940;2023-04-25T15:29:29;12.30;90.90
66088;DHT22;52872;52.994;6.940;2023-04-25T15:31:56;12.00;90.30
66088;DHT22;52872;52.994;6.940;2023-04-25T15:34:24;11.90;90.70
66088;DHT22;52872;52.994;6.940;2023-04-25T15:36:51;11.80;94.30
66088;DHT22;52872;52.994;6.940;2023-04-25T15:39:17;11.40;94.80
66088;DHT22;52872;52.994;6.940;2023-04-25T15:41:44;11.20;95.90
66088;DHT22;52872;52.994;6.940;2023-04-25T15:44:11;11.00;95.80
66088;DHT22;52872;52.994;6.940;2023-04-25T15:46:38;10.90;95.50
66088;DHT22;52872;52.994;6.940;2023-04-25T15:49:05;10.80;96.60
66088;DHT22;52872;52.994;6.940;2023-04-25T15:51:32;10.60;96.40
66088;DHT22;52872;52.994;6.940;2023-04-25T15:53:59;10.60;96.50
66088;DHT22;52872;52.994;6.940;2023-04-25T15:56:28;10.60;96.90
66088;DHT22;52872;52.994;6.940;2023-04-25T15:58:55;10.70;96.90
66088;DHT22;52872;52.994;6.940;2023-04-25T16:01:22;10.80;96.90
66088;DHT22;52872;52.994;6.940;2023-04-25T16:03:51;11.00;96.10